sensor_id;sensor_type;location;lat;lon;timestamp;temperature;humidity
17170;DHT22;8700;48.222;16.342;2022-12-07T00:05:21;6.30;99.90
17170;DHT22;8700;48.222;16.342;2022-12-07T00:08:45;6.30;99.90
17170;DHT22;8700;48.222;16.342;2022-12-07T00:12:09;6.30;99.90
17170;DHT22;8700;48.222;16.342;2022-12-07T00:15:33;6.40;99.90
17170;DHT22;8700;48.222;16.342;2022-12-07T00:18:56;6.30;99.90
17170;DHT22;8700;48.222;16.342;2022-12-07T00:22:21;6.40;99.90
17170;DHT22;8700;48.222;16.342;2022-12-07T00:25:43;6.50;99.90
17170;DHT22;8700;48.222;16.342;2022-12-07T00:29:09;6.30;99.90
17170;DHT22;8700;48.222;16.342;2022-12-07T00:37:02;6.50;99.90
17170;DHT22;8700;48.222;16.342;2022-12-07T00:40:26;6.50;99.90
17170;DHT22;8700;48.222;16.342;2022-12-07T00:43:51;6.60;99.90
17170;DHT22;8700;48.222;16.342;2022-12-07T00:47:13;6.60;99.90
17170;DHT22;8700;48.222;16.342;2022-12-07T00:50:36;6.70;99.90
17170;DHT22;8700;48.222;16.342;2022-12-07T00:53:58;6.70;99.90
17170;DHT22;8700;48.222;16.342;2022-12-07T00:57:23;6.70;99.90
17170;DHT22;8700;48.222;16.342;2022-12-07T01:00:47;6.80;99.90
17170;DHT22;8700;48.222;16.342;2022-12-07T01:04:09;6.70;99.90
17170;DHT22;8700;48.222;16.342;2022-12-07T01:07:32;6.70;99.90
17170;DHT22;8700;48.222;16.342;2022-12-07T01:10:59;6.90;99.90
17170;DHT22;8700;48.222;16.342;2022-12-07T01:14:23;6.70;99.90
17170;DHT22;8700;48.222;16.342;2022-12-07T01:17:46;6.70;99.90
17170;DHT22;8700;48.222;16.342;2022-12-07T01:21:12;6.80;99.90
17170;DHT22;8700;48.222;16.342;2022-12-07T01:24:35;6.80;99.90
17170;DHT22;8700;48.222;16.342;2022-12-07T01:27:57;6.70;99.90
17170;DHT22;8700;48.222;16.342;2022-12-07T01:31:22;6.60;99.90
17170;DHT22;8700;48.222;16.342;2022-12-07T01:34:47;6.60;99.90
17170;DHT22;8700;48.222;16.342;2022-12-07T01:38:10;6.80;99.90
17170;DHT22;8700;48.222;16.342;2022-12-07T01:41:35;6.80;99.90
17170;DHT22;8700;48.222;16.342;2022-12-07T01:49:00;6.80;99.90
17170;DHT22;8700;48.222;16.342;2022-12-07T01:52:25;6.60;99.90
17170;DHT22;8700;48.222;16.342;2022-12-07T01:55:52;6.70;99.90
17170;DHT22;8700;48.222;16.342;2022-12-07T01:59:16;6.80;99.90
17170;DHT22;8700;48.222;16.342;2022-12-07T02:02:44;6.70;99.90
17170;DHT22;8700;48.222;16.342;2022-12-07T02:06:11;6.60;99.90
17170;DHT22;8700;48.222;16.342;2022-12-07T02:09:35;6.60;99.90
17170;DHT22;8700;48.222;16.342;2022-12-07T02:13:03;6.60;99.90
17170;DHT22;8700;48.222;16.342;2022-12-07T02:16:33;6.60;99.90
17170;DHT22;8700;48.222;16.342;2022-12-07T02:20:27;6.50;99.90
17170;DHT22;8700;48.222;16.342;2022-12-07T02:24:13;6.50;99.90
17170;DHT22;8700;48.222;16.342;2022-12-07T02:27:45;6.60;99.90
17170;DHT22;8700;48.222;16.342;2022-12-07T02:31:14;6.60;99.90
17170;DHT22;8700;48.222;16.342;2022-12-07T02:34:48;6.50;99.90
17170;DHT22;8700;48.222;16.342;2022-12-07T02:38:16;6.60;99.90
17170;DHT22;8700;48.222;16.342;2022-12-07T02:41:43;6.50;99.90
17170;DHT22;8700;48.222;16.342;2022-12-07T02:45:07;6.50;99.90
17170;DHT22;8700;48.222;16.342;2022-12-07T02:48:33;6.70;99.90
17170;DHT22;8700;48.222;16.342;2022-12-07T02:51:55;6.70;99.90
17170;DHT22;8700;48.222;16.342;2022-12-07T02:55:21;6.90;99.90
17170;DHT22;8700;48.222;16.342;2022-12-07T02:58:52;6.70;99.90
17170;DHT22;8700;48.222;16.342;2022-12-07T03:02:24;6.40;99.90
17170;DHT22;8700;48.222;16.342;2022-12-07T03:06:10;6.60;99.90
17170;DHT22;8700;48.222;16.342;2022-12-07T03:09:40;6.70;99.90
17170;DHT22;8700;48.222;16.342;2022-12-07T03:13:09;6.80;99.90
17170;DHT22;8700;48.222;16.342;2022-12-07T03:16:35;6.90;99.90
17170;DHT22;8700;48.222;16.342;2022-12-07T03:20:03;6.80;99.90
17170;DHT22;8700;48.222;16.342;2022-12-07T03:23:29;6.60;99.90
17170;DHT22;8700;48.222;16.342;2022-12-07T03:26:56;6.40;99.90
17170;DHT22;8700;48.222;16.342;2022-12-07T03:30:22;6.30;99.90
17170;DHT22;8700;48.222;16.342;2022-12-07T03:33:50;6.40;99.90
17170;DHT22;8700;48.222;16.342;2022-12-07T03:37:17;6.30;99.90
17170;DHT22;8700;48.222;16.342;2022-12-07T03:40:46;6.40;99.90
17170;DHT22;8700;48.222;16.342;2022-12-07T03:44:12;6.60;99.90
17170;DHT22;8700;48.222;16.342;2022-12-07T03:47:41;6.50;99.90
17170;DHT22;8700;48.222;16.342;2022-12-07T03:51:11;6.60;99.90
17170;DHT22;8700;48.222;16.342;2022-12-07T03:54:39;6.50;99.90
17170;DHT22;8700;48.222;16.342;2022-12-07T03:58:09;6.40;99.90
17170;DHT22;8700;48.222;16.342;2022-12-07T04:01:33;6.40;99.90
17170;DHT22;8700;48.222;16.342;2022-12-07T04:04:56;6.40;99.90
17170;DHT22;8700;48.222;16.342;2022-12-07T04:08:18;6.30;99.90
17170;DHT22;8700;48.222;16.342;2022-12-07T04:11:41;6.30;99.90
17170;DHT22;8700;48.222;16.342;2022-12-07T04:19:40;6.40;99.90
17170;DHT22;8700;48.222;16.342;2022-12-07T04:23:03;6.30;99.90
17170;DHT22;8700;48.222;16.342;2022-12-07T04:26:26;6.10;99.90
17170;DHT22;8700;48.222;16.342;2022-12-07T04:29:48;6.00;99.90
17170;DHT22;8700;48.222;16.342;2022-12-07T04:33:10;6.10;99.90
17170;DHT22;8700;48.222;16.342;2022-12-07T04:36:34;6.10;99.90
17170;DHT22;8700;48.222;16.342;2022-12-07T04:39:58;6.00;99.90
17170;DHT22;8700;48.222;16.342;2022-12-07T04:43:21;5.80;99.90
17170;DHT22;8700;48.222;16.342;2022-12-07T04:46:44;5.80;99.90
17170;DHT22;8700;48.222;16.342;2022-12-07T04:50:08;6.00;99.90
17170;DHT22;8700;48.222;16.342;2022-12-07T04:53:34;5.90;99.90
17170;DHT22;8700;48.222;16.342;2022-12-07T04:56:57;6.00;99.90
17170;DHT22;8700;48.222;16.342;2022-12-07T05:00:19;6.10;99.90
17170;DHT22;8700;48.222;16.342;2022-12-07T05:03:43;6.20;99.90
17170;DHT22;8700;48.222;16.342;2022-12-07T05:07:06;6.30;99.90
17170;DHT22;8700;48.222;16.342;2022-12-07T05:19:39;6.20;99.90
17170;DHT22;8700;48.222;16.342;2022-12-07T05:23:01;6.20;99.90
17170;DHT22;8700;48.222;16.342;2022-12-07T05:26:23;6.30;99.90
17170;DHT22;8700;48.222;16.342;2022-12-07T05:29:46;6.30;99.90
17170;DHT22;8700;48.222;16.342;2022-12-07T05:33:08;6.30;99.90
17170;DHT22;8700;48.222;16.342;2022-12-07T05:36:32;6.30;99.90
17170;DHT22;8700;48.222;16.342;2022-12-07T05:39:54;6.30;99.90
17170;DHT22;8700;48.222;16.342;2022-12-07T05:43:16;6.30;99.90
17170;DHT22;8700;48.222;16.342;2022-12-07T05:46:39;6.30;99.90
17170;DHT22;8700;48.222;16.342;2022-12-07T05:50:02;6.40;99.90
17170;DHT22;8700;48.222;16.342;2022-12-07T05:53:26;6.40;99.90
17170;DHT22;8700;48.222;16.342;2022-12-07T05:56:49;6.60;99.90
17170;DHT22;8700;48.222;16.342;2022-12-07T06:00:12;6.80;99.90
17170;DHT22;8700;48.222;16.342;2022-12-07T06:03:36;6.90;99.90
17170;DHT22;8700;48.222;16.342;2022-12-07T06:06:59;6.80;99.90
17170;DHT22;8700;48.222;16.342;2022-12-07T06:10:23;6.90;99.90
17170;DHT22;8700;48.222;16.342;2022-12-07T06:13:46;6.90;99.90
17170;DHT22;8700;48.222;16.342;2022-12-07T06:17:07;6.90;99.90
17170;DHT22;8700;48.222;16.342;2022-12-07T06:20:30;7.00;99.90
17170;DHT22;8700;48.222;16.342;2022-12-07T06:23:53;6.80;99.90
17170;DHT22;8700;48.222;16.342;2022-12-07T06:27:17;6.80;99.90
17170;DHT22;8700;48.222;16.342;2022-12-07T06:30:39;6.90;99.90
17170;DHT22;8700;48.222;16.342;2022-12-07T06:34:03;7.10;99.90
17170;DHT22;8700;48.222;16.342;2022-12-07T06:37:27;7.00;99.90
17170;DHT22;8700;48.222;16.342;2022-12-07T06:40:49;6.80;99.90
17170;DHT22;8700;48.222;16.342;2022-12-07T06:44:14;6.90;99.90
17170;DHT22;8700;48.222;16.342;2022-12-07T06:47:36;7.00;99.90
17170;DHT22;8700;48.222;16.342;2022-12-07T06:50:58;7.20;99.90
17170;DHT22;8700;48.222;16.342;2022-12-07T06:54:23;7.10;99.90
17170;DHT22;8700;48.222;16.342;2022-12-07T06:57:46;7.10;99.90
17170;DHT22;8700;48.222;16.342;2022-12-07T07:01:12;7.00;99.90
17170;DHT22;8700;48.222;16.342;2022-12-07T07:04:36;7.10;99.90
17170;DHT22;8700;48.222;16.342;2022-12-07T07:07:59;7.30;99.90
17170;DHT22;8700;48.222;16.342;2022-12-07T07:11:22;7.30;99.90
17170;DHT22;8700;48.222;16.342;2022-12-07T07:14:45;7.40;99.90
17170;DHT22;8700;48.222;16.342;2022-12-07T07:18:11;7.40;99.90
17170;DHT22;8700;48.222;16.342;2022-12-07T07:21:34;7.30;99.90
17170;DHT22;8700;48.222;16.342;2022-12-07T07:24:57;7.40;99.90
17170;DHT22;8700;48.222;16.342;2022-12-07T07:28:21;7.30;99.90
17170;DHT22;8700;48.222;16.342;2022-12-07T07:31:45;7.30;99.90
17170;DHT22;8700;48.222;16.342;2022-12-07T07:35:10;7.50;99.90
17170;DHT22;8700;48.222;16.342;2022-12-07T07:38:35;7.40;99.90
17170;DHT22;8700;48.222;16.342;2022-12-07T07:41:57;7.50;99.90
17170;DHT22;8700;48.222;16.342;2022-12-07T07:45:22;7.40;99.90
17170;DHT22;8700;48.222;16.342;2022-12-07T07:48:47;7.30;99.90
17170;DHT22;8700;48.222;16.342;2022-12-07T07:52:11;7.30;99.90
17170;DHT22;8700;48.222;16.342;2022-12-07T07:55:34;7.30;99.90
17170;DHT22;8700;48.222;16.342;2022-12-07T07:58:57;7.30;99.90
17170;DHT22;8700;48.222;16.342;2022-12-07T08:02:21;7.40;99.90
17170;DHT22;8700;48.222;16.342;2022-12-07T08:05:44;7.10;99.90
17170;DHT22;8700;48.222;16.342;2022-12-07T08:09:08;7.00;99.90
17170;DHT22;8700;48.222;16.342;2022-12-07T08:12:35;7.30;99.90
17170;DHT22;8700;48.222;16.342;2022-12-07T08:15:58;7.30;99.90
17170;DHT22;8700;48.222;16.342;2022-12-07T08:19:22;6.90;99.90
17170;DHT22;8700;48.222;16.342;2022-12-07T08:22:46;6.70;99.90
17170;DHT22;8700;48.222;16.342;2022-12-07T08:26:12;6.70;99.90
17170;DHT22;8700;48.222;16.342;2022-12-07T08:29:36;6.80;99.90
17170;DHT22;8700;48.222;16.342;2022-12-07T08:32:59;6.80;99.90
17170;DHT22;8700;48.222;16.342;2022-12-07T08:36:23;6.80;99.90
17170;DHT22;8700;48.222;16.342;2022-12-07T08:39:47;7.00;99.90
17170;DHT22;8700;48.222;16.342;2022-12-07T08:43:12;7.10;99.90
17170;DHT22;8700;48.222;16.342;2022-12-07T08:46:37;7.00;99.90
17170;DHT22;8700;48.222;16.342;2022-12-07T08:50:03;7.20;99.90
17170;DHT22;8700;48.222;16.342;2022-12-07T08:53:25;7.00;99.90
17170;DHT22;8700;48.222;16.342;2022-12-07T08:56:49;7.00;99.90
17170;DHT22;8700;48.222;16.342;2022-12-07T09:00:15;7.20;99.90
17170;DHT22;8700;48.222;16.342;2022-12-07T09:03:39;7.50;99.90
17170;DHT22;8700;48.222;16.342;2022-12-07T09:11:48;7.40;99.90
17170;DHT22;8700;48.222;16.342;2022-12-07T09:15:11;7.50;99.90
17170;DHT22;8700;48.222;16.342;2022-12-07T09:18:37;7.10;99.90
17170;DHT22;8700;48.222;16.342;2022-12-07T09:22:00;7.10;99.90
17170;DHT22;8700;48.222;16.342;2022-12-07T09:25:23;6.90;99.90
17170;DHT22;8700;48.222;16.342;2022-12-07T09:28:46;6.90;99.90
17170;DHT22;8700;48.222;16.342;2022-12-07T09:32:08;6.70;99.90
17170;DHT22;8700;48.222;16.342;2022-12-07T09:44:40;6.70;99.90
17170;DHT22;8700;48.222;16.342;2022-12-07T09:48:04;6.80;99.90
17170;DHT22;8700;48.222;16.342;2022-12-07T09:51:27;6.80;99.90
17170;DHT22;8700;48.222;16.342;2022-12-07T09:54:50;6.80;99.90
17170;DHT22;8700;48.222;16.342;2022-12-07T09:58:19;7.00;99.90
17170;DHT22;8700;48.222;16.342;2022-12-07T10:01:46;6.80;99.90
17170;DHT22;8700;48.222;16.342;2022-12-07T10:05:13;6.70;99.90
17170;DHT22;8700;48.222;16.342;2022-12-07T10:08:36;6.70;99.90
17170;DHT22;8700;48.222;16.342;2022-12-07T10:12:00;6.80;99.90
17170;DHT22;8700;48.222;16.342;2022-12-07T10:15:23;6.90;99.90
17170;DHT22;8700;48.222;16.342;2022-12-07T10:18:47;6.80;99.90
17170;DHT22;8700;48.222;16.342;2022-12-07T10:22:12;6.90;99.90
17170;DHT22;8700;48.222;16.342;2022-12-07T10:25:36;6.90;99.90
17170;DHT22;8700;48.222;16.342;2022-12-07T10:29:04;7.30;99.90
17170;DHT22;8700;48.222;16.342;2022-12-07T10:32:36;7.00;99.90
17170;DHT22;8700;48.222;16.342;2022-12-07T10:36:00;7.20;99.90
17170;DHT22;8700;48.222;16.342;2022-12-07T10:39:24;7.00;99.90
17170;DHT22;8700;48.222;16.342;2022-12-07T10:43:00;7.10;99.90
17170;DHT22;8700;48.222;16.342;2022-12-07T10:46:59;7.30;99.90
17170;DHT22;8700;48.222;16.342;2022-12-07T10:50:35;8.20;99.90
17170;DHT22;8700;48.222;16.342;2022-12-07T10:54:08;8.80;99.90
17170;DHT22;8700;48.222;16.342;2022-12-07T10:57:44;9.70;99.90
17170;DHT22;8700;48.222;16.342;2022-12-07T11:01:13;10.20;99.90
17170;DHT22;8700;48.222;16.342;2022-12-07T11:04:47;10.80;99.90
17170;DHT22;8700;48.222;16.342;2022-12-07T11:08:21;11.00;99.90
17170;DHT22;8700;48.222;16.342;2022-12-07T11:11:50;11.00;99.90
17170;DHT22;8700;48.222;16.342;2022-12-07T11:15:21;12.30;99.50
17170;DHT22;8700;48.222;16.342;2022-12-07T11:18:52;11.40;98.50
17170;DHT22;8700;48.222;16.342;2022-12-07T11:22:18;10.60;99.90
17170;DHT22;8700;48.222;16.342;2022-12-07T11:25:48;10.00;99.90
17170;DHT22;8700;48.222;16.342;2022-12-07T11:29:28;10.60;99.90
17170;DHT22;8700;48.222;16.342;2022-12-07T11:33:15;10.90;99.90
17170;DHT22;8700;48.222;16.342;2022-12-07T11:36:40;10.70;99.90
17170;DHT22;8700;48.222;16.342;2022-12-07T11:49:17;8.70;99.90
17170;DHT22;8700;48.222;16.342;2022-12-07T11:52:44;8.30;99.90
17170;DHT22;8700;48.222;16.342;2022-12-07T11:56:13;8.40;99.90
17170;DHT22;8700;48.222;16.342;2022-12-07T11:59:40;8.80;99.90
17170;DHT22;8700;48.222;16.342;2022-12-07T12:03:12;10.00;99.90
17170;DHT22;8700;48.222;16.342;2022-12-07T12:06:40;10.60;99.90
17170;DHT22;8700;48.222;16.342;2022-12-07T12:10:13;11.50;98.40
17170;DHT22;8700;48.222;16.342;2022-12-07T12:14:10;12.60;95.70
17170;DHT22;8700;48.222;16.342;2022-12-07T12:17:58;11.80;93.40
17170;DHT22;8700;48.222;16.342;2022-12-07T12:21:28;10.70;94.50
17170;DHT22;8700;48.222;16.342;2022-12-07T12:24:54;10.20;96.80
17170;DHT22;8700;48.222;16.342;2022-12-07T12:28:24;9.60;98.80
17170;DHT22;8700;48.222;16.342;2022-12-07T12:32:05;9.40;99.20
17170;DHT22;8700;48.222;16.342;2022-12-07T12:35:30;9.00;99.90
17170;DHT22;8700;48.222;16.342;2022-12-07T12:39:11;9.00;99.90
17170;DHT22;8700;48.222;16.342;2022-12-07T12:42:47;8.40;99.90
17170;DHT22;8700;48.222;16.342;2022-12-07T12:46:49;8.30;99.90
17170;DHT22;8700;48.222;16.342;2022-12-07T12:50:20;8.10;99.90
17170;DHT22;8700;48.222;16.342;2022-12-07T12:53:46;7.90;99.90
17170;DHT22;8700;48.222;16.342;2022-12-07T12:57:13;8.30;99.90
17170;DHT22;8700;48.222;16.342;2022-12-07T13:00:39;8.40;99.90
17170;DHT22;8700;48.222;16.342;2022-12-07T13:04:03;7.90;99.90
17170;DHT22;8700;48.222;16.342;2022-12-07T13:07:56;8.10;99.90
17170;DHT22;8700;48.222;16.342;2022-12-07T13:11:27;7.70;99.90
17170;DHT22;8700;48.222;16.342;2022-12-07T13:15:00;8.00;99.90
17170;DHT22;8700;48.222;16.342;2022-12-07T13:18:35;7.90;99.90
17170;DHT22;8700;48.222;16.342;2022-12-07T13:21:57;8.10;99.90
17170;DHT22;8700;48.222;16.342;2022-12-07T13:25:31;8.30;99.90
17170;DHT22;8700;48.222;16.342;2022-12-07T13:29:09;8.30;99.90
17170;DHT22;8700;48.222;16.342;2022-12-07T13:32:32;8.30;99.90
17170;DHT22;8700;48.222;16.342;2022-12-07T13:35:57;8.00;99.90
17170;DHT22;8700;48.222;16.342;2022-12-07T13:43:52;8.10;99.90
17170;DHT22;8700;48.222;16.342;2022-12-07T13:47:19;8.30;99.90
17170;DHT22;8700;48.222;16.342;2022-12-07T13:50:42;8.30;99.90
17170;DHT22;8700;48.222;16.342;2022-12-07T13:54:11;8.00;99.90
17170;DHT22;8700;48.222;16.342;2022-12-07T13:57:35;7.40;99.90
17170;DHT22;8700;48.222;16.342;2022-12-07T14:00:59;7.20;99.90
17170;DHT22;8700;48.222;16.342;2022-12-07T14:04:33;7.20;99.90
17170;DHT22;8700;48.222;16.342;2022-12-07T14:07:58;7.20;99.90
17170;DHT22;8700;48.222;16.342;2022-12-07T14:11:27;7.20;99.90
17170;DHT22;8700;48.222;16.342;2022-12-07T14:14:51;7.20;99.90
17170;DHT22;8700;48.222;16.342;2022-12-07T14:18:27;7.20;99.90
17170;DHT22;8700;48.222;16.342;2022-12-07T14:22:07;7.30;99.90
17170;DHT22;8700;48.222;16.342;2022-12-07T14:25:32;7.20;99.90
17170;DHT22;8700;48.222;16.342;2022-12-07T14:29:27;7.20;99.90
17170;DHT22;8700;48.222;16.342;2022-12-07T14:32:57;7.10;99.90
17170;DHT22;8700;48.222;16.342;2022-12-07T14:36:21;7.10;99.90
17170;DHT22;8700;48.222;16.342;2022-12-07T14:39:45;6.80;99.90
17170;DHT22;8700;48.222;16.342;2022-12-07T14:43:12;6.70;99.90
17170;DHT22;8700;48.222;16.342;2022-12-07T14:46:40;6.50;99.90
17170;DHT22;8700;48.222;16.342;2022-12-07T14:59:26;6.50;99.90
17170;DHT22;8700;48.222;16.342;2022-12-07T15:02:51;6.50;99.90
17170;DHT22;8700;48.222;16.342;2022-12-07T15:06:18;6.70;99.90
17170;DHT22;8700;48.222;16.342;2022-12-07T15:09:41;6.70;99.90
17170;DHT22;8700;48.222;16.342;2022-12-07T15:13:07;6.70;99.90
17170;DHT22;8700;48.222;16.342;2022-12-07T15:16:49;6.70;99.90
17170;DHT22;8700;48.222;16.342;2022-12-07T15:20:16;6.80;99.90
17170;DHT22;8700;48.222;16.342;2022-12-07T15:23:41;6.60;99.90
17170;DHT22;8700;48.222;16.342;2022-12-07T15:27:07;6.50;99.90
17170;DHT22;8700;48.222;16.342;2022-12-07T15:30:31;6.60;99.90
17170;DHT22;8700;48.222;16.342;2022-12-07T15:34:01;6.50;99.90
17170;DHT22;8700;48.222;16.342;2022-12-07T15:37:28;6.40;99.90
17170;DHT22;8700;48.222;16.342;2022-12-07T15:40:52;6.50;99.90
17170;DHT22;8700;48.222;16.342;2022-12-07T15:44:19;6.50;99.90
17170;DHT22;8700;48.222;16.342;2022-12-07T15:48:01;6.50;99.90
17170;DHT22;8700;48.222;16.342;2022-12-07T15:51:25;6.60;99.90
17170;DHT22;8700;48.222;16.342;2022-12-07T15:54:50;6.50;99.90
17170;DHT22;8700;48.222;16.342;2022-12-07T15:58:15;6.30;99.90
17170;DHT22;8700;48.222;16.342;2022-12-07T16:01:38;6.30;99.90
17170;DHT22;8700;48.222;16.342;2022-12-07T16:05:03;6.30;99.90
17170;DHT22;8700;48.222;16.342;2022-12-07T16:08:27;6.20;99.90
17170;DHT22;8700;48.222;16.342;2022-12-07T16:11:55;6.20;99.90
17170;DHT22;8700;48.222;16.342;2022-12-07T16:15:19;6.20;99.90
17170;DHT22;8700;48.222;16.342;2022-12-07T16:18:47;6.00;99.90
17170;DHT22;8700;48.222;16.342;2022-12-07T16:22:12;6.10;99.90
17170;DHT22;8700;48.222;16.342;2022-12-07T16:25:40;6.00;99.90
17170;DHT22;8700;48.222;16.342;2022-12-07T16:29:06;5.90;99.90
17170;DHT22;8700;48.222;16.342;2022-12-07T16:32:31;6.00;99.90
17170;DHT22;8700;48.222;16.342;2022-12-07T16:35:54;5.90;99.90
17170;DHT22;8700;48.222;16.342;2022-12-07T16:39:20;6.00;99.90
17170;DHT22;8700;48.222;16.342;2022-12-07T16:42:42;5.90;99.90
17170;DHT22;8700;48.222;16.342;2022-12-07T16:46:07;5.90;99.90
17170;DHT22;8700;48.222;16.342;2022-12-07T16:49:30;5.80;99.90
17170;DHT22;8700;48.222;16.342;2022-12-07T16:52:54;5.80;99.90
17170;DHT22;8700;48.222;16.342;2022-12-07T16:56:17;5.90;99.90
17170;DHT22;8700;48.222;16.342;2022-12-07T16:59:41;5.90;99.90
17170;DHT22;8700;48.222;16.342;2022-12-07T17:03:05;5.90;99.90
17170;DHT22;8700;48.222;16.342;2022-12-07T17:06:29;5.80;99.90
17170;DHT22;8700;48.222;16.342;2022-12-07T17:09:53;5.80;99.90
17170;DHT22;8700;48.222;16.342;2022-12-07T17:13:17;5.70;99.90
17170;DHT22;8700;48.222;16.342;2022-12-07T17:16:57;5.70;99.90
17170;DHT22;8700;48.222;16.342;2022-12-07T17:20:24;5.70;99.90
17170;DHT22;8700;48.222;16.342;2022-12-07T17:23:48;5.80;99.90
17170;DHT22;8700;48.222;16.342;2022-12-07T17:27:11;5.80;99.90
17170;DHT22;8700;48.222;16.342;2022-12-07T17:30:34;5.90;99.90
17170;DHT22;8700;48.222;16.342;2022-12-07T17:33:57;6.00;99.90
17170;DHT22;8700;48.222;16.342;2022-12-07T17:37:21;6.00;99.90
17170;DHT22;8700;48.222;16.342;2022-12-07T17:40:44;6.20;99.90
17170;DHT22;8700;48.222;16.342;2022-12-07T17:44:09;6.30;99.90
17170;DHT22;8700;48.222;16.342;2022-12-07T17:47:32;6.40;99.90
17170;DHT22;8700;48.222;16.342;2022-12-07T17:50:59;6.40;99.90
17170;DHT22;8700;48.222;16.342;2022-12-07T17:54:41;6.30;99.90
17170;DHT22;8700;48.222;16.342;2022-12-07T17:58:05;6.10;99.90
17170;DHT22;8700;48.222;16.342;2022-12-07T18:01:27;6.00;99.90
17170;DHT22;8700;48.222;16.342;2022-12-07T18:04:50;5.90;99.90
17170;DHT22;8700;48.222;16.342;2022-12-07T18:08:13;5.90;99.90
17170;DHT22;8700;48.222;16.342;2022-12-07T18:11:37;5.80;99.90
17170;DHT22;8700;48.222;16.342;2022-12-07T18:15:00;5.70;99.90
17170;DHT22;8700;48.222;16.342;2022-12-07T18:18:24;5.70;99.90
17170;DHT22;8700;48.222;16.342;2022-12-07T18:21:47;5.70;99.90
17170;DHT22;8700;48.222;16.342;2022-12-07T18:25:10;5.70;99.90
17170;DHT22;8700;48.222;16.342;2022-12-07T18:33:06;5.80;99.90
17170;DHT22;8700;48.222;16.342;2022-12-07T18:36:29;5.80;99.90
17170;DHT22;8700;48.222;16.342;2022-12-07T18:39:51;5.80;99.90
17170;DHT22;8700;48.222;16.342;2022-12-07T18:43:15;5.70;99.90
17170;DHT22;8700;48.222;16.342;2022-12-07T18:46:38;5.70;99.90
17170;DHT22;8700;48.222;16.342;2022-12-07T18:50:04;5.90;99.90
17170;DHT22;8700;48.222;16.342;2022-12-07T18:53:27;6.00;99.90
17170;DHT22;8700;48.222;16.342;2022-12-07T18:56:50;6.00;99.90
17170;DHT22;8700;48.222;16.342;2022-12-07T19:00:15;5.80;99.90
17170;DHT22;8700;48.222;16.342;2022-12-07T19:03:38;5.90;99.90
17170;DHT22;8700;48.222;16.342;2022-12-07T19:07:02;5.90;99.90
17170;DHT22;8700;48.222;16.342;2022-12-07T19:10:25;5.90;99.90
17170;DHT22;8700;48.222;16.342;2022-12-07T19:13:47;6.00;99.90
17170;DHT22;8700;48.222;16.342;2022-12-07T19:17:12;5.90;99.90
17170;DHT22;8700;48.222;16.342;2022-12-07T19:20:34;5.80;99.90
17170;DHT22;8700;48.222;16.342;2022-12-07T19:24:01;5.90;99.90
17170;DHT22;8700;48.222;16.342;2022-12-07T19:27:24;6.10;99.90
17170;DHT22;8700;48.222;16.342;2022-12-07T19:30:47;6.50;99.90
17170;DHT22;8700;48.222;16.342;2022-12-07T19:34:09;6.50;99.90
17170;DHT22;8700;48.222;16.342;2022-12-07T19:37:32;6.50;99.90
17170;DHT22;8700;48.222;16.342;2022-12-07T19:41:03;6.30;99.90
17170;DHT22;8700;48.222;16.342;2022-12-07T19:44:27;6.30;99.90
17170;DHT22;8700;48.222;16.342;2022-12-07T19:47:51;6.40;99.90
17170;DHT22;8700;48.222;16.342;2022-12-07T19:51:14;6.20;99.90
17170;DHT22;8700;48.222;16.342;2022-12-07T19:54:36;6.20;99.90
17170;DHT22;8700;48.222;16.342;2022-12-07T19:58:00;6.40;99.90
17170;DHT22;8700;48.222;16.342;2022-12-07T20:01:23;6.70;99.90
17170;DHT22;8700;48.222;16.342;2022-12-07T20:04:45;6.90;99.90
17170;DHT22;8700;48.222;16.342;2022-12-07T20:08:09;6.80;99.90
17170;DHT22;8700;48.222;16.342;2022-12-07T20:11:34;6.70;99.90
17170;DHT22;8700;48.222;16.342;2022-12-07T20:15:15;6.40;99.90
17170;DHT22;8700;48.222;16.342;2022-12-07T20:18:37;6.60;99.90
17170;DHT22;8700;48.222;16.342;2022-12-07T20:21:59;6.60;99.90
17170;DHT22;8700;48.222;16.342;2022-12-07T20:25:22;6.70;99.90
17170;DHT22;8700;48.222;16.342;2022-12-07T20:28:44;6.90;99.90
17170;DHT22;8700;48.222;16.342;2022-12-07T20:32:11;7.00;99.90
17170;DHT22;8700;48.222;16.342;2022-12-07T20:35:35;7.20;99.90
17170;DHT22;8700;48.222;16.342;2022-12-07T20:38:58;7.20;99.90
17170;DHT22;8700;48.222;16.342;2022-12-07T20:42:22;7.10;99.90
17170;DHT22;8700;48.222;16.342;2022-12-07T20:46:00;7.20;99.90
17170;DHT22;8700;48.222;16.342;2022-12-07T20:49:24;7.10;99.90
17170;DHT22;8700;48.222;16.342;2022-12-07T20:52:47;7.00;99.90
17170;DHT22;8700;48.222;16.342;2022-12-07T20:56:17;6.80;99.90
17170;DHT22;8700;48.222;16.342;2022-12-07T20:59:40;7.00;99.90
17170;DHT22;8700;48.222;16.342;2022-12-07T21:03:03;7.00;99.90
17170;DHT22;8700;48.222;16.342;2022-12-07T21:06:28;7.10;99.90
17170;DHT22;8700;48.222;16.342;2022-12-07T21:09:51;6.70;99.90
17170;DHT22;8700;48.222;16.342;2022-12-07T21:13:14;6.70;99.90
17170;DHT22;8700;48.222;16.342;2022-12-07T21:16:37;6.50;99.90
17170;DHT22;8700;48.222;16.342;2022-12-07T21:20:00;6.30;99.90
17170;DHT22;8700;48.222;16.342;2022-12-07T21:23:24;6.20;99.90
17170;DHT22;8700;48.222;16.342;2022-12-07T21:26:48;6.20;99.90
17170;DHT22;8700;48.222;16.342;2022-12-07T21:30:12;6.10;99.90
17170;DHT22;8700;48.222;16.342;2022-12-07T21:33:36;6.20;99.90
17170;DHT22;8700;48.222;16.342;2022-12-07T21:36:59;6.30;99.90
17170;DHT22;8700;48.222;16.342;2022-12-07T21:40:23;6.20;99.90
17170;DHT22;8700;48.222;16.342;2022-12-07T21:43:46;6.10;99.90
17170;DHT22;8700;48.222;16.342;2022-12-07T21:47:11;6.00;99.90
17170;DHT22;8700;48.222;16.342;2022-12-07T21:50:36;6.10;99.90
17170;DHT22;8700;48.222;16.342;2022-12-07T21:54:01;6.20;99.90
17170;DHT22;8700;48.222;16.342;2022-12-07T21:57:35;6.20;99.90
17170;DHT22;8700;48.222;16.342;2022-12-07T22:01:05;6.30;99.90
17170;DHT22;8700;48.222;16.342;2022-12-07T22:04:28;6.30;99.90
17170;DHT22;8700;48.222;16.342;2022-12-07T22:07:52;6.30;99.90
17170;DHT22;8700;48.222;16.342;2022-12-07T22:11:15;6.10;99.90
17170;DHT22;8700;48.222;16.342;2022-12-07T22:14:39;6.00;99.90
17170;DHT22;8700;48.222;16.342;2022-12-07T22:18:19;6.00;99.90
17170;DHT22;8700;48.222;16.342;2022-12-07T22:21:42;5.80;99.90
17170;DHT22;8700;48.222;16.342;2022-12-07T22:25:05;5.70;99.90
17170;DHT22;8700;48.222;16.342;2022-12-07T22:28:27;5.60;99.90
17170;DHT22;8700;48.222;16.342;2022-12-07T22:31:51;5.70;99.90
17170;DHT22;8700;48.222;16.342;2022-12-07T22:35:14;5.70;99.90
17170;DHT22;8700;48.222;16.342;2022-12-07T22:38:38;5.70;99.90
17170;DHT22;8700;48.222;16.342;2022-12-07T22:42:02;5.70;99.90
17170;DHT22;8700;48.222;16.342;2022-12-07T22:45:24;5.80;99.90
17170;DHT22;8700;48.222;16.342;2022-12-07T22:48:49;5.80;99.90
17170;DHT22;8700;48.222;16.342;2022-12-07T22:52:12;5.90;99.90
17170;DHT22;8700;48.222;16.342;2022-12-07T22:55:38;6.00;99.90
17170;DHT22;8700;48.222;16.342;2022-12-07T22:59:01;6.10;99.90
17170;DHT22;8700;48.222;16.342;2022-12-07T23:02:24;6.10;99.90
17170;DHT22;8700;48.222;16.342;2022-12-07T23:05:48;6.00;99.90
17170;DHT22;8700;48.222;16.342;2022-12-07T23:09:12;6.00;99.90